createdAt,value
2023-04-06T00:00:02.001Z,101481.25
2023-04-06T00:01:04.442Z,101481.25
2023-04-06T00:02:28.479Z,101462.34
2023-04-06T00:04:55.109Z,101474.38
2023-04-06T00:06:04.435Z,101474.38
2023-04-06T00:07:21.745Z,101451.97
2023-04-06T00:09:51.006Z,101418.34
2023-04-06T00:11:04.447Z,101418.34
2023-04-06T00:12:17.476Z,101382.16
2023-04-06T00:14:44.146Z,101411.44
2023-04-06T00:16:05.286Z,101411.44
2023-04-06T00:17:11.160Z,101489.84
2023-04-06T00:19:38.079Z,101471.75
2023-04-06T00:21:04.437Z,101471.75
2023-04-06T00:22:04.593Z,101464.91
2023-04-06T00:24:31.168Z,101477.81
2023-04-06T00:26:04.451Z,101477.81
2023-04-06T00:26:57.634Z,101174.69
2023-04-06T00:29:24.563Z,101457.16
2023-04-06T00:31:04.488Z,101457.16
2023-04-06T00:31:53.510Z,101466.59
2023-04-06T00:34:20.283Z,101455.41
2023-04-06T00:36:04.442Z,101455.41
2023-04-06T00:36:46.812Z,101449.38
2023-04-06T00:39:13.308Z,101458.00
2023-04-06T00:41:04.461Z,101458.00
2023-04-06T00:41:46.872Z,101458.00
2023-04-06T00:44:13.405Z,101451.97
2023-04-06T00:46:04.607Z,101451.97
2023-04-06T00:46:39.890Z,101362.38
2023-04-06T00:49:09.351Z,101375.28
2023-04-06T00:51:04.471Z,101375.28
2023-04-06T00:51:36.078Z,101443.34
2023-04-06T00:54:02.858Z,101436.47
2023-04-06T00:56:05.641Z,101436.47
2023-04-06T00:56:29.808Z,101433.88
2023-04-06T00:58:59.993Z,101408.03
2023-04-06T01:01:04.457Z,101408.03
2023-04-06T01:01:26.755Z,101421.81
2023-04-06T01:03:53.628Z,101336.53
2023-04-06T01:06:04.465Z,101336.53
2023-04-06T01:06:20.439Z,101403.72
2023-04-06T01:08:46.881Z,101344.25
2023-04-06T01:11:04.431Z,101344.25
2023-04-06T01:11:13.325Z,101395.09
2023-04-06T01:13:39.729Z,101339.97
2023-04-06T01:16:04.503Z,101339.97
2023-04-06T01:16:06.601Z,101387.31
2023-04-06T01:18:33.107Z,101385.56
2023-04-06T01:21:00.560Z,101357.13
2023-04-06T01:21:04.442Z,101357.13
2023-04-06T01:23:26.986Z,101389.84
2023-04-06T01:25:53.465Z,101295.13
2023-04-06T01:26:04.429Z,101295.13
2023-04-06T01:28:19.927Z,101379.53
2023-04-06T01:30:46.434Z,101390.69
2023-04-06T01:31:04.501Z,101390.69
2023-04-06T01:33:12.825Z,101388.97
2023-04-06T01:35:39.322Z,101173.63
2023-04-06T01:36:04.536Z,101173.63
2023-04-06T01:38:05.844Z,101378.56
2023-04-06T01:40:32.234Z,101363.09
2023-04-06T01:41:04.502Z,101363.09
2023-04-06T01:42:58.681Z,101390.69
2023-04-06T01:45:25.398Z,101347.66
2023-04-06T01:46:05.533Z,101347.66
2023-04-06T01:47:51.926Z,101369.19
2023-04-06T01:50:18.352Z,101322.72
2023-04-06T01:51:04.445Z,101322.72
2023-04-06T01:52:44.682Z,101389.03
2023-04-06T01:55:11.205Z,101385.63
2023-04-06T01:56:04.463Z,101385.63
2023-04-06T01:57:37.715Z,101390.81
2023-04-06T02:00:04.676Z,101390.81
2023-04-06T02:01:04.490Z,101390.81
2023-04-06T02:02:31.678Z,101328.81
2023-04-06T02:04:58.196Z,101298.69
2023-04-06T02:06:04.475Z,101298.69
2023-04-06T02:07:24.648Z,101378.75
2023-04-06T02:09:55.765Z,101367.56
2023-04-06T02:11:04.513Z,101367.56
2023-04-06T02:12:22.345Z,101360.69
2023-04-06T02:14:48.679Z,101359.81
2023-04-06T02:16:04.502Z,101359.81
2023-04-06T02:17:15.322Z,101356.34
2023-04-06T02:19:41.924Z,101329.66
2023-04-06T02:21:04.609Z,101329.66
2023-04-06T02:22:08.351Z,101369.19
2023-04-06T02:24:34.729Z,101341.69
2023-04-06T02:26:04.522Z,101341.69
2023-04-06T02:27:01.572Z,101294.28
2023-04-06T02:29:27.978Z,101274.50
2023-04-06T02:31:04.498Z,101274.50
2023-04-06T02:31:54.459Z,101306.41
2023-04-06T02:34:21.068Z,101342.56
2023-04-06T02:36:04.517Z,101342.56
2023-04-06T02:36:48.115Z,101341.75
2023-04-06T02:39:15.023Z,101342.59
2023-04-06T02:41:04.518Z,101342.59
2023-04-06T02:41:41.461Z,101222.94
2023-04-06T02:44:12.098Z,101332.25
2023-04-06T02:46:04.696Z,101332.25
2023-04-06T02:46:38.488Z,101287.47
2023-04-06T02:49:04.981Z,101245.25
2023-04-06T02:51:04.516Z,101245.25
2023-04-06T02:51:31.420Z,101282.28
2023-04-06T02:53:57.865Z,101344.28
2023-04-06T02:56:04.509Z,101344.28
2023-04-06T02:56:24.256Z,101315.03
2023-04-06T02:58:50.845Z,101335.66
2023-04-06T03:01:04.539Z,101335.66
2023-04-06T03:01:17.630Z,101337.38
2023-04-06T03:03:44.250Z,101336.53
2023-04-06T03:06:04.480Z,101336.53
2023-04-06T03:06:11.041Z,101305.53
2023-04-06T03:08:37.573Z,101333.09
2023-04-06T03:11:04.022Z,101338.25
2023-04-06T03:11:04.491Z,101338.25
2023-04-06T03:13:30.468Z,101335.69
2023-04-06T03:15:57.271Z,101340.00
2023-04-06T03:16:04.549Z,101340.00
2023-04-06T03:18:25.862Z,101326.22
2023-04-06T03:20:54.889Z,101331.41
2023-04-06T03:21:04.474Z,101331.41
2023-04-06T03:23:22.104Z,101326.25
2023-04-06T03:25:48.610Z,101236.72
2023-04-06T03:26:04.756Z,101236.72
2023-04-06T03:28:15.606Z,101314.19
2023-04-06T03:30:42.034Z,101252.22
2023-04-06T03:31:04.517Z,101252.22
2023-04-06T03:33:08.490Z,101319.38
2023-04-06T03:35:35.013Z,101324.56
2023-04-06T03:36:04.554Z,101324.56
2023-04-06T03:38:01.481Z,101240.19
2023-04-06T03:40:27.916Z,101322.00
2023-04-06T03:41:04.495Z,101322.00
2023-04-06T03:42:54.318Z,101326.28
2023-04-06T03:45:20.741Z,101315.94
2023-04-06T03:46:04.557Z,101315.94
2023-04-06T03:47:47.363Z,101315.97
2023-04-06T03:50:13.766Z,101313.38
2023-04-06T03:51:04.477Z,101313.38
2023-04-06T03:52:40.227Z,101257.47
2023-04-06T03:55:07.471Z,101230.75
2023-04-06T03:56:04.938Z,101230.75
2023-04-06T03:57:33.987Z,101312.50
2023-04-06T04:00:00.785Z,101305.63
2023-04-06T04:01:04.508Z,101305.63
2023-04-06T04:02:27.350Z,101309.09
2023-04-06T04:04:53.896Z,101287.56
2023-04-06T04:06:04.509Z,101287.56
2023-04-06T04:07:20.452Z,101062.19
2023-04-06T04:09:46.830Z,101304.75
2023-04-06T04:11:04.514Z,101304.75
2023-04-06T04:12:13.216Z,101297.88
2023-04-06T04:14:39.633Z,101219.56
2023-04-06T04:16:04.568Z,101219.56
2023-04-06T04:17:06.151Z,101297.88
2023-04-06T04:19:32.540Z,101297.00
2023-04-06T04:21:04.509Z,101297.00
2023-04-06T04:21:58.973Z,101295.28
2023-04-06T04:24:25.409Z,101295.31
2023-04-06T04:26:04.552Z,101295.31
2023-04-06T04:26:51.801Z,101294.41
2023-04-06T04:29:20.953Z,101228.13
2023-04-06T04:31:04.505Z,101228.13
2023-04-06T04:31:47.448Z,101291.81
2023-04-06T04:34:13.936Z,101283.22
2023-04-06T04:36:04.559Z,101283.22
2023-04-06T04:36:42.475Z,101293.56
2023-04-06T04:39:09.408Z,101294.41
2023-04-06T04:41:04.532Z,101294.41
2023-04-06T04:41:36.319Z,101253.97
2023-04-06T04:44:02.706Z,101287.53
2023-04-06T04:46:04.639Z,101287.53
2023-04-06T04:46:29.269Z,101269.47
2023-04-06T04:48:55.832Z,101296.16
2023-04-06T04:51:04.518Z,101296.16
2023-04-06T04:51:22.248Z,101286.69
2023-04-06T04:53:48.615Z,101288.41
2023-04-06T04:56:04.514Z,101288.41
2023-04-06T04:56:15.048Z,101293.56
2023-04-06T04:58:41.376Z,101278.13
2023-04-06T05:01:04.556Z,101278.13
2023-04-06T05:01:07.957Z,101293.59
2023-04-06T05:03:34.773Z,101292.75
2023-04-06T05:06:01.389Z,101216.19
2023-04-06T05:06:04.499Z,101216.19
2023-04-06T05:08:27.830Z,101258.34
2023-04-06T05:10:54.462Z,101288.47
2023-04-06T05:11:04.521Z,101288.47
2023-04-06T05:13:21.131Z,101280.72
2023-04-06T05:15:47.608Z,101276.44
2023-04-06T05:16:04.589Z,101276.44
2023-04-06T05:18:14.053Z,101283.31
2023-04-06T05:20:43.310Z,101281.56
2023-04-06T05:21:04.525Z,101281.56
2023-04-06T05:23:09.826Z,101219.66
2023-04-06T05:25:36.554Z,101286.72
2023-04-06T05:26:04.507Z,101286.72
2023-04-06T05:28:03.110Z,101282.41
2023-04-06T05:30:29.572Z,101192.13
2023-04-06T05:31:04.609Z,101192.13
2023-04-06T05:32:59.565Z,101281.53
2023-04-06T05:35:26.077Z,101245.41
2023-04-06T05:36:04.567Z,101245.41
2023-04-06T05:37:52.570Z,101286.69
2023-04-06T05:40:19.066Z,101217.03
2023-04-06T05:41:04.524Z,101217.03
2023-04-06T05:42:45.584Z,101271.16
2023-04-06T05:45:17.588Z,101182.56
2023-04-06T05:46:04.618Z,101182.56
2023-04-06T05:47:47.466Z,101204.06
2023-04-06T05:50:16.211Z,101270.22
2023-04-06T05:51:04.517Z,101270.22
2023-04-06T05:52:44.175Z,101199.69
2023-04-06T05:55:11.540Z,101240.91
2023-04-06T05:56:04.508Z,101240.91
2023-04-06T05:57:38.086Z,101252.88
2023-04-06T06:00:07.735Z,101061.31
2023-04-06T06:01:04.517Z,101061.31
2023-04-06T06:02:34.327Z,101215.03
2023-04-06T06:05:01.186Z,101179.78
2023-04-06T06:06:05.589Z,101179.78
2023-04-06T06:07:28.628Z,101245.84
2023-04-06T06:09:58.740Z,101232.00
2023-04-06T06:11:04.555Z,101232.00
2023-04-06T06:12:25.262Z,101234.53
2023-04-06T06:14:51.733Z,101205.34
2023-04-06T06:16:04.538Z,101205.34
2023-04-06T06:17:18.159Z,101164.88
2023-04-06T06:19:44.623Z,101171.66
2023-04-06T06:21:04.508Z,101171.66
2023-04-06T06:22:11.321Z,101143.22
2023-04-06T06:24:37.748Z,101230.66
2023-04-06T06:26:04.527Z,101230.66
2023-04-06T06:27:04.511Z,101157.56
2023-04-06T06:29:30.868Z,101231.28
2023-04-06T06:31:04.539Z,101231.28
2023-04-06T06:31:57.431Z,101209.59
2023-04-06T06:34:24.184Z,101217.97
2023-04-06T06:36:04.592Z,101217.97
2023-04-06T06:36:52.370Z,101216.00
2023-04-06T06:39:19.241Z,101189.22
2023-04-06T06:41:04.526Z,101189.22
2023-04-06T06:41:45.651Z,101216.28
2023-04-06T06:44:12.207Z,101210.81
2023-04-06T06:46:04.609Z,101210.81
2023-04-06T06:46:38.776Z,101102.31
2023-04-06T06:49:05.283Z,101213.19
2023-04-06T06:51:04.545Z,101213.19
2023-04-06T06:51:31.831Z,101173.81
2023-04-06T06:53:58.305Z,101159.44
2023-04-06T06:56:04.495Z,101159.44
2023-04-06T06:56:24.757Z,101073.75
2023-04-06T06:58:51.344Z,101076.97
2023-04-06T07:01:04.515Z,101076.97
2023-04-06T07:01:17.995Z,101091.63
2023-04-06T07:03:44.422Z,101092.69
2023-04-06T07:06:04.518Z,101092.69
2023-04-06T07:06:10.924Z,101044.47
2023-04-06T07:08:37.520Z,101030.47
2023-04-06T07:11:03.948Z,100970.13
2023-04-06T07:11:04.608Z,100970.13
2023-04-06T07:13:30.416Z,100973.94
2023-04-06T07:15:57.074Z,100996.72
2023-04-06T07:16:04.582Z,100996.72
2023-04-06T07:18:23.497Z,100935.94
2023-04-06T07:20:49.991Z,100977.94
2023-04-06T07:21:04.569Z,100977.94
2023-04-06T07:23:16.568Z,100900.72
2023-04-06T07:25:43.091Z,100980.53
2023-04-06T07:26:04.521Z,100980.53
2023-04-06T07:28:09.568Z,100973.94
2023-04-06T07:30:37.547Z,100879.72
2023-04-06T07:31:04.530Z,100879.72
2023-04-06T07:33:04.219Z,100989.16
2023-04-06T07:35:31.187Z,100954.75
2023-04-06T07:36:04.550Z,100954.75
2023-04-06T07:37:58.012Z,101006.84
2023-04-06T07:40:24.522Z,100965.38
2023-04-06T07:41:04.524Z,100965.38
2023-04-06T07:42:51.240Z,100937.06
2023-04-06T07:45:17.698Z,100947.50
2023-04-06T07:46:04.664Z,100947.50
2023-04-06T07:47:44.211Z,100948.31
2023-04-06T07:50:11.369Z,100951.84
2023-04-06T07:51:04.553Z,100951.84
2023-04-06T07:52:38.585Z,100817.56
2023-04-06T07:55:05.517Z,100985.88
2023-04-06T07:56:04.557Z,100985.88
2023-04-06T07:57:32.029Z,101020.72
2023-04-06T07:59:58.480Z,100970.72
2023-04-06T08:01:04.592Z,100970.72
2023-04-06T08:02:27.326Z,100976.44
2023-04-06T08:04:53.993Z,100959.22
2023-04-06T08:06:04.519Z,100959.22
2023-04-06T08:07:20.654Z,100970.16
2023-04-06T08:09:47.074Z,100990.97
2023-04-06T08:11:04.555Z,100990.97
2023-04-06T08:12:13.531Z,100863.34
2023-04-06T08:14:39.900Z,100961.22
2023-04-06T08:16:04.593Z,100961.22
2023-04-06T08:17:06.675Z,100938.97
2023-04-06T08:19:33.456Z,100932.94
2023-04-06T08:21:04.538Z,100932.94
2023-04-06T08:21:59.923Z,100949.03
2023-04-06T08:24:26.589Z,100848.63
2023-04-06T08:26:04.572Z,100848.63
2023-04-06T08:26:56.138Z,100835.81
2023-04-06T08:29:22.584Z,100896.03
2023-04-06T08:31:04.591Z,100896.03
2023-04-06T08:31:48.977Z,100870.44
2023-04-06T08:34:17.923Z,100900.78
2023-04-06T08:36:04.567Z,100900.78
2023-04-06T08:36:44.426Z,100894.06
2023-04-06T08:39:10.872Z,100892.13
2023-04-06T08:41:06.403Z,100892.13
2023-04-06T08:41:37.409Z,100874.91
2023-04-06T08:44:04.372Z,100915.66
2023-04-06T08:46:05.717Z,100915.66
2023-04-06T08:46:31.794Z,100884.84
2023-04-06T08:49:00.232Z,100878.88
2023-04-06T08:51:04.523Z,100878.88
2023-04-06T08:51:27.963Z,100909.91
2023-04-06T08:53:59.162Z,100919.88
2023-04-06T08:56:04.566Z,100919.88
2023-04-06T08:56:27.575Z,100928.19
2023-04-06T08:58:58.206Z,100929.72
2023-04-06T09:01:04.567Z,100929.72
2023-04-06T09:01:28.571Z,100890.53
2023-04-06T09:04:02.240Z,100855.91
2023-04-06T09:06:04.543Z,100855.91
2023-04-06T09:06:28.968Z,100833.75
2023-04-06T09:08:56.104Z,100817.47
2023-04-06T09:11:04.551Z,100817.47
2023-04-06T09:11:22.645Z,100805.09
2023-04-06T09:13:54.086Z,100844.47
2023-04-06T09:16:04.631Z,100844.47
2023-04-06T09:16:21.135Z,100841.22
2023-04-06T09:18:48.919Z,100842.25
2023-04-06T09:21:04.558Z,100842.25
2023-04-06T09:21:18.673Z,100871.28
2023-04-06T09:23:49.545Z,100833.38
2023-04-06T09:26:04.570Z,100833.38
2023-04-06T09:26:18.217Z,100843.56
2023-04-06T09:28:58.824Z,100894.81
2023-04-06T09:31:04.563Z,100894.81
2023-04-06T09:31:28.885Z,100887.34
2023-04-06T09:33:56.024Z,100832.50
2023-04-06T09:36:04.550Z,100832.50
2023-04-06T09:36:36.821Z,100841.66
2023-04-06T09:39:04.397Z,100816.81
2023-04-06T09:41:04.554Z,100816.81
2023-04-06T09:41:33.230Z,100835.66
2023-04-06T09:44:17.799Z,100837.78
2023-04-06T09:46:04.647Z,100837.78
2023-04-06T09:46:59.822Z,100832.63
2023-04-06T09:49:32.267Z,100808.78
2023-04-06T09:51:04.594Z,100808.78
2023-04-06T09:52:04.176Z,100805.84
2023-04-06T09:54:32.564Z,100827.25
2023-04-06T09:56:04.583Z,100827.25
2023-04-06T09:57:17.494Z,100878.94
2023-04-06T10:00:12.263Z,100811.84
2023-04-06T10:01:04.666Z,100811.84
2023-04-06T10:02:51.041Z,100866.94
2023-04-06T10:05:41.994Z,100924.38
2023-04-06T10:06:04.547Z,100924.38
2023-04-06T10:08:11.327Z,100954.81
2023-04-06T10:10:38.750Z,100957.03
2023-04-06T10:11:04.565Z,100957.03
2023-04-06T10:13:05.821Z,100890.06
2023-04-06T10:15:33.013Z,100894.81
2023-04-06T10:16:04.596Z,100894.81
2023-04-06T10:18:01.252Z,100834.78
2023-04-06T10:20:44.457Z,100909.72
2023-04-06T10:21:04.548Z,100909.72
2023-04-06T10:23:17.696Z,100760.88
2023-04-06T10:25:57.748Z,100887.91
2023-04-06T10:26:04.622Z,100887.91
2023-04-06T10:28:24.885Z,100764.72
2023-04-06T10:30:58.582Z,100791.69
2023-04-06T10:31:04.830Z,100791.69
2023-04-06T10:33:27.015Z,100855.47
2023-04-06T10:35:53.636Z,100878.66
2023-04-06T10:36:04.591Z,100878.66
2023-04-06T10:38:22.865Z,100854.81
2023-04-06T10:40:49.921Z,100846.81
2023-04-06T10:41:04.620Z,100846.81
2023-04-06T10:43:22.025Z,100759.22
2023-04-06T10:46:01.276Z,100702.44
2023-04-06T10:46:04.699Z,100702.44
2023-04-06T10:48:41.499Z,100856.94
2023-04-06T10:51:04.617Z,100856.94
2023-04-06T10:51:15.869Z,100857.22
2023-04-06T10:53:44.675Z,100842.00
2023-04-06T10:56:04.582Z,100842.00
2023-04-06T10:56:15.574Z,100908.81
2023-04-06T10:58:49.952Z,100859.66
2023-04-06T11:01:04.621Z,100859.66
2023-04-06T11:01:21.184Z,100842.03
2023-04-06T11:03:53.899Z,100857.81
2023-04-06T11:06:04.572Z,100857.81
2023-04-06T11:06:21.115Z,100855.25
2023-04-06T11:08:48.098Z,100708.16
2023-04-06T11:11:04.610Z,100708.16
2023-04-06T11:11:19.179Z,100797.00
2023-04-06T11:13:49.320Z,100824.16
2023-04-06T11:16:04.546Z,100824.16
2023-04-06T11:16:18.265Z,100715.13
2023-04-06T11:18:49.548Z,100774.59
2023-04-06T11:21:04.594Z,100774.59
2023-04-06T11:21:15.996Z,100715.59
2023-04-06T11:23:42.370Z,100857.50
2023-04-06T11:26:04.558Z,100857.50
2023-04-06T11:26:13.633Z,100806.97
2023-04-06T11:28:42.958Z,100780.97
2023-04-06T11:31:04.572Z,100780.97
2023-04-06T11:31:10.588Z,100792.66
2023-04-06T11:33:38.742Z,100833.38
2023-04-06T11:36:07.640Z,100840.75
2023-04-06T11:36:07.949Z,100840.75
2023-04-06T11:38:34.146Z,100652.47
2023-04-06T11:41:04.440Z,100839.94
2023-04-06T11:41:04.611Z,100839.94
2023-04-06T11:43:31.669Z,100854.28
2023-04-06T11:46:03.451Z,100809.47
2023-04-06T11:46:04.799Z,100809.47
2023-04-06T11:48:31.085Z,100702.53
2023-04-06T11:50:59.338Z,100793.69
2023-04-06T11:51:04.566Z,100793.69
2023-04-06T11:53:26.384Z,100846.72
2023-04-06T11:55:52.840Z,100837.09
2023-04-06T11:56:04.644Z,100837.09
2023-04-06T11:58:19.281Z,100829.75
2023-04-06T12:00:47.497Z,100730.59
2023-04-06T12:01:04.571Z,100730.59
2023-04-06T12:03:14.684Z,100801.13
2023-04-06T12:05:41.554Z,100873.38
2023-04-06T12:06:04.581Z,100873.38
2023-04-06T12:08:07.932Z,100828.00
2023-04-06T12:10:34.400Z,100719.72
2023-04-06T12:11:04.573Z,100719.72
2023-04-06T12:13:01.135Z,100619.94
2023-04-06T12:15:27.783Z,100633.63
2023-04-06T12:16:04.637Z,100633.63
2023-04-06T12:17:54.230Z,100750.63
2023-04-06T12:20:26.596Z,100721.31
2023-04-06T12:21:04.589Z,100721.31
2023-04-06T12:22:53.880Z,100752.66
2023-04-06T12:25:20.588Z,100663.47
2023-04-06T12:26:04.614Z,100663.47
2023-04-06T12:27:49.499Z,100712.16
2023-04-06T12:30:16.353Z,100789.63
2023-04-06T12:31:04.628Z,100789.63
2023-04-06T12:32:42.784Z,100812.06
2023-04-06T12:35:14.036Z,100754.84
2023-04-06T12:36:04.579Z,100754.84
2023-04-06T12:37:41.112Z,100707.09
2023-04-06T12:40:08.167Z,100784.25
2023-04-06T12:41:04.623Z,100784.25
2023-04-06T12:42:34.577Z,100854.94
2023-04-06T12:45:01.176Z,100843.03
2023-04-06T12:46:04.691Z,100843.03
2023-04-06T12:47:27.916Z,100867.03
2023-04-06T12:49:55.759Z,100834.25
2023-04-06T12:51:05.656Z,100834.25
2023-04-06T12:52:22.225Z,100880.25
2023-04-06T12:54:50.119Z,100892.31
2023-04-06T12:56:04.554Z,100892.31
2023-04-06T12:57:18.065Z,100904.22
2023-04-06T12:59:45.748Z,100947.34
2023-04-06T13:01:04.581Z,100947.34
2023-04-06T13:02:12.527Z,100968.75
2023-04-06T13:04:39.009Z,100945.75
2023-04-06T13:06:04.568Z,100945.75
2023-04-06T13:07:05.728Z,100906.13
2023-04-06T13:09:32.116Z,100981.56
2023-04-06T13:11:04.569Z,100981.56
2023-04-06T13:11:58.597Z,101039.25
2023-04-06T13:14:25.354Z,101046.41
2023-04-06T13:16:04.690Z,101046.41
2023-04-06T13:16:52.249Z,101009.25
2023-04-06T13:19:19.180Z,101088.38
2023-04-06T13:21:04.616Z,101088.38
2023-04-06T13:21:45.826Z,101084.34
2023-04-06T13:24:12.328Z,101027.00
2023-04-06T13:26:04.684Z,101027.00
2023-04-06T13:26:38.797Z,101074.69
2023-04-06T13:29:05.489Z,101019.56
2023-04-06T13:31:04.570Z,101019.56
2023-04-06T13:31:32.438Z,101065.53
2023-04-06T13:33:59.407Z,100979.19
2023-04-06T13:36:04.602Z,100979.19
2023-04-06T13:36:27.656Z,100962.56
2023-04-06T13:38:56.162Z,100945.72
2023-04-06T13:41:04.644Z,100945.72
2023-04-06T13:41:24.225Z,100924.38
2023-04-06T13:43:50.847Z,101088.47
2023-04-06T13:46:04.636Z,101088.47
2023-04-06T13:46:17.862Z,101044.25
2023-04-06T13:48:44.726Z,100860.38
2023-04-06T13:51:04.643Z,100860.38
2023-04-06T13:51:15.006Z,101052.25
2023-04-06T13:53:41.928Z,101067.50
2023-04-06T13:56:04.597Z,101067.50
2023-04-06T13:56:09.141Z,101044.31
2023-04-06T13:58:36.940Z,101043.91
2023-04-06T14:01:08.355Z,100945.19
2023-04-06T14:01:08.985Z,100945.19
2023-04-06T14:03:35.204Z,100949.72
2023-04-06T14:06:09.279Z,100917.31
2023-04-06T14:06:29.789Z,100917.31
2023-04-06T14:08:42.537Z,100888.47
2023-04-06T14:11:04.562Z,100888.47
2023-04-06T14:11:13.142Z,100947.16
2023-04-06T14:13:40.495Z,100998.38
2023-04-06T14:16:04.588Z,100998.38
2023-04-06T14:16:07.948Z,101070.81
2023-04-06T14:18:35.310Z,101089.28
2023-04-06T14:21:01.725Z,101116.38
2023-04-06T14:21:04.631Z,101116.38
2023-04-06T14:23:29.549Z,101118.59
2023-04-06T14:26:06.873Z,101138.63
2023-04-06T14:26:07.013Z,101138.63
2023-04-06T14:28:34.316Z,101201.47
2023-04-06T14:31:01.933Z,101230.50
2023-04-06T14:31:04.570Z,101230.50
2023-04-06T14:33:28.464Z,101264.06
2023-04-06T14:35:55.051Z,101313.75
2023-04-06T14:36:04.605Z,101313.75
2023-04-06T14:38:21.654Z,101334.97
2023-04-06T14:40:48.070Z,101324.31
2023-04-06T14:41:04.597Z,101324.31
2023-04-06T14:43:14.682Z,101315.16
2023-04-06T14:45:41.098Z,101386.06
2023-04-06T14:46:04.625Z,101386.06
2023-04-06T14:48:07.807Z,101344.03
2023-04-06T14:50:36.558Z,101414.28
2023-04-06T14:51:04.663Z,101414.28
2023-04-06T14:53:02.932Z,101406.66
2023-04-06T14:55:29.399Z,101405.56
2023-04-06T14:56:04.622Z,101405.56
2023-04-06T14:57:58.247Z,101374.00
2023-04-06T15:00:24.672Z,101381.75
2023-04-06T15:01:04.626Z,101381.75
2023-04-06T15:02:51.216Z,101399.47
2023-04-06T15:05:17.919Z,101359.34
2023-04-06T15:06:04.611Z,101359.34
2023-04-06T15:07:44.279Z,101347.31
2023-04-06T15:10:12.294Z,101409.44
2023-04-06T15:11:04.606Z,101409.44
2023-04-06T15:12:38.969Z,101366.50
2023-04-06T15:15:06.218Z,101403.47
2023-04-06T15:16:04.687Z,101403.47
2023-04-06T15:17:32.689Z,101407.50
2023-04-06T15:19:59.256Z,101427.47
2023-04-06T15:21:04.596Z,101427.47
2023-04-06T15:22:27.989Z,101421.78
2023-04-06T15:24:54.334Z,101350.44
2023-04-06T15:26:04.602Z,101350.44
2023-04-06T15:27:21.722Z,101318.31
2023-04-06T15:29:48.251Z,101392.22
2023-04-06T15:31:04.622Z,101392.22
2023-04-06T15:32:14.767Z,101413.03
2023-04-06T15:34:41.332Z,101344.72
2023-04-06T15:36:04.636Z,101344.72
2023-04-06T15:37:07.988Z,101389.91
2023-04-06T15:39:34.504Z,101406.13
2023-04-06T15:41:04.603Z,101406.13
2023-04-06T15:42:01.190Z,101397.94
2023-04-06T15:44:27.571Z,101364.06
2023-04-06T15:46:04.747Z,101364.06
2023-04-06T15:46:54.033Z,101381.56
2023-04-06T15:49:21.178Z,101391.44
2023-04-06T15:51:05.682Z,101391.44
2023-04-06T15:51:48.864Z,101351.28
2023-04-06T15:54:16.309Z,101366.63
2023-04-06T15:56:04.608Z,101366.63
2023-04-06T15:56:43.133Z,101327.72
2023-04-06T15:59:09.500Z,101357.13
2023-04-06T16:01:04.596Z,101357.13
2023-04-06T16:01:35.943Z,101331.41
2023-04-06T16:04:02.581Z,101385.34
2023-04-06T16:06:08.726Z,101385.34
2023-04-06T16:06:29.159Z,101383.78
2023-04-06T16:08:55.662Z,101379.41
2023-04-06T16:11:04.587Z,101379.41
2023-04-06T16:11:21.974Z,101377.81
2023-04-06T16:13:54.692Z,101361.38
2023-04-06T16:16:04.724Z,101361.38
2023-04-06T16:16:22.214Z,101368.28
2023-04-06T16:18:48.660Z,101363.94
2023-04-06T16:21:04.599Z,101363.94
2023-04-06T16:21:17.684Z,101350.78
2023-04-06T16:23:47.724Z,101306.59
2023-04-06T16:26:04.655Z,101306.59
2023-04-06T16:26:15.504Z,101333.06
2023-04-06T16:28:42.555Z,101352.19
2023-04-06T16:31:04.621Z,101352.19
2023-04-06T16:31:20.007Z,101263.34
2023-04-06T16:33:46.891Z,101304.59
2023-04-06T16:36:04.640Z,101304.59
2023-04-06T16:36:13.438Z,101269.53
2023-04-06T16:38:39.983Z,101317.59
2023-04-06T16:41:04.635Z,101317.59
2023-04-06T16:41:06.819Z,101309.03
2023-04-06T16:43:33.282Z,101245.41
2023-04-06T16:45:59.694Z,101304.25
2023-04-06T16:46:04.731Z,101304.25
2023-04-06T16:48:26.207Z,101292.44
2023-04-06T16:50:52.696Z,101283.41
2023-04-06T16:51:04.711Z,101283.41
2023-04-06T16:53:19.125Z,101278.13
2023-04-06T16:55:45.661Z,101258.06
2023-04-06T16:56:04.602Z,101258.06
2023-04-06T16:58:12.039Z,101254.41
2023-04-06T17:00:38.479Z,101240.59
2023-04-06T17:01:04.697Z,101240.59
2023-04-06T17:03:05.096Z,101232.25
2023-04-06T17:05:34.545Z,101218.50
2023-04-06T17:06:04.592Z,101218.50
2023-04-06T17:08:00.927Z,101215.19
2023-04-06T17:10:33.410Z,101197.97
2023-04-06T17:11:05.085Z,101197.97
2023-04-06T17:13:03.616Z,101194.63
2023-04-06T17:15:30.019Z,101176.34
2023-04-06T17:16:04.602Z,101176.34
2023-04-06T17:17:56.457Z,101175.50
2023-04-06T17:20:23.048Z,101163.22
2023-04-06T17:21:04.650Z,101163.22
2023-04-06T17:22:49.543Z,101093.22
2023-04-06T17:25:16.566Z,101100.91
2023-04-06T17:26:04.618Z,101100.91
2023-04-06T17:27:43.651Z,101145.25
2023-04-06T17:30:11.415Z,101131.41
2023-04-06T17:31:04.643Z,101131.41
2023-04-06T17:32:38.190Z,101105.91
2023-04-06T17:35:05.037Z,101120.84
2023-04-06T17:36:04.615Z,101120.84
2023-04-06T17:37:31.879Z,101112.50
2023-04-06T17:39:58.354Z,100744.97
2023-04-06T17:41:04.641Z,100744.97
2023-04-06T17:42:24.816Z,101048.72
2023-04-06T17:44:53.126Z,101053.50
2023-04-06T17:46:04.636Z,101053.50
2023-04-06T17:47:19.913Z,101065.50
2023-04-06T17:49:46.579Z,101088.91
2023-04-06T17:51:04.714Z,101088.91
2023-04-06T17:52:12.931Z,101085.66
2023-04-06T17:54:39.351Z,101087.16
2023-04-06T17:56:04.671Z,101087.16
2023-04-06T17:57:07.581Z,101085.41
2023-04-06T17:59:34.232Z,101073.47
2023-04-06T18:01:04.644Z,101073.47
2023-04-06T18:02:03.041Z,101057.25
2023-04-06T18:04:30.055Z,101049.63
2023-04-06T18:06:04.607Z,101049.63
2023-04-06T18:06:56.613Z,100994.91
2023-04-06T18:09:23.000Z,101031.16
2023-04-06T18:11:04.640Z,101031.16
2023-04-06T18:11:49.404Z,101046.69
2023-04-06T18:14:16.389Z,101007.38
2023-04-06T18:16:04.679Z,101007.38
2023-04-06T18:16:43.060Z,101066.78
2023-04-06T18:19:09.780Z,101014.09
2023-04-06T18:21:04.630Z,101014.09
2023-04-06T18:21:36.962Z,100976.47
2023-04-06T18:24:05.135Z,101049.03
2023-04-06T18:26:04.666Z,101049.03
2023-04-06T18:26:33.785Z,101043.06
2023-04-06T18:29:00.483Z,101044.63
2023-04-06T18:31:04.707Z,101044.63
2023-04-06T18:31:27.008Z,100977.31
2023-04-06T18:33:54.497Z,101033.16
2023-04-06T18:36:04.602Z,101033.16
2023-04-06T18:36:21.355Z,101030.53
2023-04-06T18:38:48.563Z,101034.34
2023-04-06T18:41:04.590Z,101034.34
2023-04-06T18:41:16.446Z,101014.25
2023-04-06T18:43:42.886Z,101015.00
2023-04-06T18:46:04.623Z,101015.00
2023-04-06T18:46:13.588Z,100931.38
2023-04-06T18:48:41.213Z,101014.94